createdAt,value
2022-12-08T00:01:12.571Z,21.73
2022-12-08T00:03:39.452Z,20.87
2022-12-08T00:06:30.432Z,23.27
2022-12-08T00:09:15.823Z,26.60
2022-12-08T00:11:42.518Z,23.20
2022-12-08T00:14:09.337Z,24.03
2022-12-08T00:16:36.200Z,23.93
2022-12-08T00:19:02.990Z,26.20
2022-12-08T00:21:29.736Z,23.50
2022-12-08T00:23:56.885Z,22.13
2022-12-08T00:26:23.983Z,24.53
2022-12-08T00:28:50.667Z,36.23
2022-12-08T00:31:17.573Z,29.40
2022-12-08T00:33:44.406Z,34.30
2022-12-08T00:36:13.942Z,34.83
2022-12-08T00:38:41.619Z,31.93
2022-12-08T00:41:13.834Z,35.83
2022-12-08T00:43:40.585Z,33.40
2022-12-08T00:46:07.411Z,42.07
2022-12-08T00:48:34.231Z,35.47
2022-12-08T00:51:01.530Z,38.40
2022-12-08T00:53:28.347Z,36.90
2022-12-08T00:55:55.057Z,37.10
2022-12-08T00:58:21.832Z,38.30
2022-12-08T01:00:48.616Z,39.33
2022-12-08T01:03:15.521Z,38.40
2022-12-08T01:05:42.282Z,35.33
2022-12-08T01:08:09.472Z,34.73
2022-12-08T01:10:37.532Z,37.33
2022-12-08T01:13:04.651Z,42.07
2022-12-08T01:15:31.466Z,41.37
2022-12-08T01:17:58.227Z,37.77
2022-12-08T01:20:25.003Z,40.53
2022-12-08T01:22:51.760Z,38.57
2022-12-08T01:25:18.584Z,36.70
2022-12-08T01:27:45.310Z,39.30
2022-12-08T01:30:13.359Z,40.70
2022-12-08T01:32:40.108Z,54.23
2022-12-08T01:35:07.068Z,38.20
2022-12-08T01:37:33.771Z,38.20
2022-12-08T01:40:00.551Z,43.60
2022-12-08T01:42:27.344Z,40.47
2022-12-08T01:45:04.129Z,34.80
2022-12-08T01:47:41.322Z,34.80
2022-12-08T01:50:12.365Z,32.13
2022-12-08T01:52:49.280Z,33.30
2022-12-08T01:55:24.243Z,30.60
2022-12-08T01:57:58.770Z,31.40
2022-12-08T02:00:25.597Z,33.47
2022-12-08T02:02:54.424Z,29.63
2022-12-08T02:05:24.535Z,33.73
2022-12-08T02:07:52.075Z,28.10
2022-12-08T02:10:23.755Z,31.80
2022-12-08T02:12:54.817Z,29.17
2022-12-08T02:15:29.613Z,27.23
2022-12-08T02:18:24.442Z,31.77
2022-12-08T02:21:16.791Z,29.80
2022-12-08T02:23:59.465Z,31.33
2022-12-08T02:26:49.285Z,29.70
2022-12-08T02:29:53.721Z,32.03
2022-12-08T02:32:32.363Z,29.13
2022-12-08T02:35:23.846Z,22.13
2022-12-08T02:38:01.564Z,26.83
2022-12-08T02:43:20.270Z,26.93
2022-12-08T02:45:57.247Z,30.17
2022-12-08T02:48:26.044Z,25.37
2022-12-08T02:50:52.726Z,27.60
2022-12-08T02:53:19.416Z,22.03
2022-12-08T02:56:27.110Z,23.67
2022-12-08T02:58:53.803Z,25.63
2022-12-08T03:01:49.772Z,30.33
2022-12-08T03:04:22.130Z,21.90
2022-12-08T03:07:14.709Z,19.13
2022-12-08T03:10:20.769Z,22.07
2022-12-08T03:12:56.874Z,24.83
2022-12-08T03:15:23.759Z,20.80
2022-12-08T03:17:58.255Z,21.50
2022-12-08T03:20:26.533Z,24.10
2022-12-08T03:22:56.605Z,20.47
2022-12-08T03:25:25.380Z,24.47
2022-12-08T03:27:52.992Z,20.43
2022-12-08T03:30:19.999Z,22.47
2022-12-08T03:32:58.571Z,19.13
2022-12-08T03:35:29.659Z,20.40
2022-12-08T03:38:22.485Z,19.40
2022-12-08T03:41:09.244Z,19.33
2022-12-08T03:43:36.538Z,24.17
2022-12-08T03:46:03.433Z,20.73
2022-12-08T03:48:30.160Z,20.63
2022-12-08T03:50:56.826Z,20.00
2022-12-08T03:53:23.485Z,18.60
2022-12-08T03:55:50.183Z,18.37
2022-12-08T03:58:16.971Z,21.53
2022-12-08T04:00:43.807Z,17.63
2022-12-08T04:03:10.597Z,15.67
2022-12-08T04:05:37.363Z,16.70
2022-12-08T04:08:04.316Z,18.43
2022-12-08T04:10:31.109Z,15.20
2022-12-08T04:12:57.922Z,16.57
2022-12-08T04:15:24.725Z,17.93
2022-12-08T04:17:51.426Z,19.93
2022-12-08T04:20:18.300Z,18.73
2022-12-08T04:22:45.127Z,27.83
2022-12-08T04:25:12.124Z,21.43
2022-12-08T04:27:38.796Z,19.97
2022-12-08T04:30:06.831Z,23.00
2022-12-08T04:32:33.698Z,19.43
2022-12-08T04:35:00.417Z,20.67
2022-12-08T04:37:28.575Z,18.77
2022-12-08T04:39:55.543Z,23.23
2022-12-08T04:42:22.282Z,21.60
2022-12-08T04:44:49.066Z,23.63
2022-12-08T04:47:15.801Z,24.87
2022-12-08T04:49:42.681Z,24.40
2022-12-08T04:52:09.378Z,27.93
2022-12-08T04:54:36.144Z,29.03
2022-12-08T04:57:02.844Z,27.70
2022-12-08T04:59:29.597Z,29.37
2022-12-08T05:01:56.378Z,32.57
2022-12-08T05:04:23.156Z,30.30
2022-12-08T05:06:49.864Z,31.73
2022-12-08T05:09:16.545Z,32.90
2022-12-08T05:11:48.573Z,38.33
2022-12-08T05:14:17.480Z,35.80
2022-12-08T05:16:45.438Z,43.37
2022-12-08T05:19:12.765Z,42.10
2022-12-08T05:21:39.768Z,36.50
2022-12-08T05:24:06.634Z,37.37
2022-12-08T05:26:34.073Z,38.67
2022-12-08T05:31:32.857Z,46.67
2022-12-08T05:34:03.207Z,44.53
2022-12-08T05:36:30.336Z,38.90
2022-12-08T05:38:58.146Z,37.43
2022-12-08T05:41:25.162Z,37.40
2022-12-08T05:43:51.884Z,44.30
2022-12-08T05:46:18.807Z,33.40
2022-12-08T05:48:45.553Z,36.53
2022-12-08T05:51:19.760Z,41.60
2022-12-08T05:53:48.024Z,37.13
2022-12-08T05:56:18.316Z,30.97
2022-12-08T05:58:45.625Z,34.57
2022-12-08T06:01:27.601Z,29.77
2022-12-08T06:03:54.838Z,37.17
2022-12-08T06:06:22.005Z,30.87
2022-12-08T06:08:49.411Z,37.40
2022-12-08T06:11:27.198Z,29.63
2022-12-08T06:13:56.046Z,33.70
2022-12-08T06:16:24.142Z,37.33
2022-12-08T06:18:50.872Z,33.00
2022-12-08T06:21:18.965Z,35.87
2022-12-08T06:23:49.164Z,33.30
2022-12-08T06:26:16.524Z,33.83
2022-12-08T06:28:43.858Z,32.50
2022-12-08T06:31:15.129Z,32.47
2022-12-08T06:33:41.949Z,33.10
2022-12-08T06:36:08.784Z,37.70
2022-12-08T06:38:38.222Z,29.33
2022-12-08T06:41:08.695Z,32.00
2022-12-08T06:43:35.410Z,30.10
2022-12-08T06:46:04.884Z,28.97
2022-12-08T06:48:31.636Z,31.00
2022-12-08T06:51:05.127Z,24.90
2022-12-08T06:53:31.868Z,27.03
2022-12-08T06:55:59.819Z,26.00
2022-12-08T06:58:26.916Z,25.30
2022-12-08T07:00:53.835Z,28.23
2022-12-08T07:03:20.720Z,26.13
2022-12-08T07:05:47.595Z,21.67
2022-12-08T07:08:14.566Z,27.03
2022-12-08T07:10:41.450Z,21.33
2022-12-08T07:13:08.268Z,24.80
2022-12-08T07:15:34.977Z,24.67
2022-12-08T07:18:01.692Z,21.87
2022-12-08T07:20:28.518Z,20.70
2022-12-08T07:22:55.353Z,23.37
2022-12-08T07:25:22.560Z,27.47
2022-12-08T07:27:51.614Z,30.33
2022-12-08T07:30:18.708Z,28.90
2022-12-08T07:32:45.433Z,30.53
2022-12-08T07:35:12.193Z,32.53
2022-12-08T07:37:39.139Z,29.23
2022-12-08T07:40:08.016Z,31.80
2022-12-08T07:42:35.233Z,33.30
2022-12-08T07:45:02.314Z,35.80
2022-12-08T07:47:29.084Z,34.50
2022-12-08T07:49:55.760Z,50.17
2022-12-08T07:52:23.325Z,35.30
2022-12-08T07:54:50.077Z,40.87
2022-12-08T07:57:17.055Z,40.60
2022-12-08T07:59:43.777Z,37.43
2022-12-08T08:02:24.875Z,42.67
2022-12-08T08:04:52.351Z,38.37
2022-12-08T08:07:19.171Z,36.10
2022-12-08T08:09:46.000Z,38.83
2022-12-08T08:15:01.264Z,38.47
2022-12-08T08:17:28.986Z,43.93
2022-12-08T08:19:55.945Z,43.83
2022-12-08T08:22:22.651Z,41.87
2022-12-08T08:24:49.393Z,39.40
2022-12-08T08:27:16.168Z,41.60
2022-12-08T08:29:42.912Z,37.20
2022-12-08T08:32:09.829Z,34.60
2022-12-08T08:34:36.656Z,35.23
2022-12-08T08:37:03.453Z,33.47
2022-12-08T08:39:31.834Z,35.07
2022-12-08T08:41:58.871Z,35.93
2022-12-08T08:44:25.593Z,29.40
2022-12-08T08:46:52.666Z,31.13
2022-12-08T08:49:20.102Z,28.30
2022-12-08T08:51:47.080Z,34.23
2022-12-08T08:54:13.772Z,32.70
2022-12-08T08:56:40.525Z,29.33
2022-12-08T08:59:07.678Z,26.90
2022-12-08T09:01:34.502Z,30.33
2022-12-08T09:04:01.612Z,31.53
2022-12-08T09:06:28.787Z,30.97
2022-12-08T09:08:55.659Z,24.10
2022-12-08T09:11:23.579Z,22.93
2022-12-08T09:13:51.829Z,31.30
2022-12-08T09:16:22.174Z,29.77
2022-12-08T09:18:49.661Z,35.30
2022-12-08T09:21:22.912Z,31.90
2022-12-08T09:23:50.962Z,27.47
2022-12-08T09:26:17.748Z,34.33
2022-12-08T09:28:46.615Z,29.97
2022-12-08T09:31:14.568Z,28.37
2022-12-08T09:33:41.537Z,24.87
2022-12-08T09:36:10.219Z,27.50
2022-12-08T09:38:38.050Z,29.83
2022-12-08T09:41:37.507Z,26.40
2022-12-08T09:44:44.183Z,30.53
2022-12-08T09:47:22.558Z,36.27
2022-12-08T09:50:19.872Z,27.07
2022-12-08T09:53:12.260Z,26.50
2022-12-08T09:55:46.914Z,26.03
2022-12-08T09:58:25.351Z,38.00
2022-12-08T10:00:52.248Z,29.47
2022-12-08T10:03:28.508Z,22.90
2022-12-08T10:06:13.365Z,28.83
2022-12-08T10:09:01.449Z,21.70
2022-12-08T10:11:51.157Z,26.23
2022-12-08T10:14:41.237Z,33.77
2022-12-08T10:17:34.996Z,27.67
2022-12-08T10:20:16.873Z,26.57
2022-12-08T10:22:46.019Z,28.07
2022-12-08T10:25:18.111Z,24.53
2022-12-08T10:27:48.672Z,27.03
2022-12-08T10:30:17.395Z,22.33
2022-12-08T10:32:51.103Z,26.00
2022-12-08T10:35:20.140Z,28.97
2022-12-08T10:38:01.567Z,32.37
2022-12-08T10:40:39.072Z,26.87
2022-12-08T10:43:15.162Z,21.87
2022-12-08T10:45:42.920Z,27.50
2022-12-08T10:48:29.136Z,22.43
2022-12-08T10:50:58.110Z,24.10
2022-12-08T10:53:30.208Z,26.97
2022-12-08T10:56:03.125Z,20.87
2022-12-08T10:58:41.808Z,23.60
2022-12-08T11:01:22.260Z,25.10
2022-12-08T11:04:00.345Z,25.73
2022-12-08T11:06:35.524Z,21.87
2022-12-08T11:09:17.577Z,22.50
2022-12-08T11:11:56.591Z,21.70
2022-12-08T11:14:29.054Z,29.67
2022-12-08T11:17:17.775Z,24.90
2022-12-08T11:20:07.000Z,16.63
2022-12-08T11:22:38.851Z,21.20
2022-12-08T11:25:08.353Z,23.70
2022-12-08T11:27:36.859Z,16.23
2022-12-08T11:30:14.803Z,23.63
2022-12-08T11:32:47.462Z,19.47
2022-12-08T11:35:32.085Z,25.40
2022-12-08T11:38:20.434Z,28.67
2022-12-08T11:40:52.359Z,20.00
2022-12-08T11:43:22.391Z,20.93
2022-12-08T11:45:58.878Z,21.57
2022-12-08T11:48:44.911Z,19.53
2022-12-08T11:51:17.065Z,24.37
2022-12-08T11:54:07.103Z,22.23
2022-12-08T11:56:37.470Z,19.47
2022-12-08T11:59:24.173Z,17.10
2022-12-08T12:01:51.354Z,21.90
2022-12-08T12:04:52.318Z,20.90
2022-12-08T12:07:39.861Z,23.50
2022-12-08T12:10:09.649Z,17.80
2022-12-08T12:12:57.455Z,19.10
2022-12-08T12:15:33.037Z,19.10
2022-12-08T12:18:20.993Z,24.70
2022-12-08T12:20:57.407Z,15.17
2022-12-08T12:23:26.398Z,18.83
2022-12-08T12:25:59.595Z,14.93
2022-12-08T12:28:31.212Z,17.43
2022-12-08T12:31:02.498Z,15.83
2022-12-08T12:33:32.090Z,17.00
2022-12-08T12:36:03.927Z,20.73
2022-12-08T12:38:51.380Z,14.37
2022-12-08T12:41:25.602Z,24.57
2022-12-08T12:44:14.099Z,21.40
2022-12-08T12:46:41.105Z,13.23
2022-12-08T12:49:38.826Z,16.13
2022-12-08T12:52:21.009Z,17.50
2022-12-08T12:54:50.679Z,20.80
2022-12-08T12:57:20.143Z,15.10
2022-12-08T12:59:55.507Z,17.27
2022-12-08T13:02:53.568Z,20.23
2022-12-08T13:05:28.993Z,20.03
2022-12-08T13:08:21.457Z,14.30
2022-12-08T13:11:09.038Z,21.17
2022-12-08T13:13:55.479Z,13.47
2022-12-08T13:16:26.177Z,19.80
2022-12-08T13:18:57.844Z,14.80
2022-12-08T13:21:32.141Z,14.20
2022-12-08T13:24:13.929Z,17.63
2022-12-08T13:26:45.648Z,12.23
2022-12-08T13:29:25.084Z,15.47
2022-12-08T13:31:59.849Z,16.20
2022-12-08T13:34:41.211Z,17.73
2022-12-08T13:37:11.010Z,20.63
2022-12-08T13:39:40.430Z,18.60
2022-12-08T13:42:12.614Z,20.30
2022-12-08T13:57:18.762Z,19.97
2022-12-08T13:59:46.219Z,26.40
2022-12-08T14:02:29.851Z,20.30
2022-12-08T14:07:44.585Z,29.70
2022-12-08T14:10:19.517Z,25.93
2022-12-08T14:12:51.979Z,34.67
2022-12-08T14:15:19.862Z,25.97
2022-12-08T14:17:55.951Z,34.57
2022-12-08T14:20:29.762Z,24.63
2022-12-08T14:22:57.505Z,33.33
2022-12-08T14:25:28.266Z,29.60
2022-12-08T14:28:04.241Z,25.57
2022-12-08T14:30:32.883Z,20.03
2022-12-08T14:33:02.150Z,19.87
2022-12-08T14:35:34.675Z,36.67
2022-12-08T14:38:03.985Z,29.60
2022-12-08T14:40:42.223Z,23.00
2022-12-08T14:43:08.939Z,23.70
2022-12-08T14:45:44.599Z,23.40
2022-12-08T14:48:30.470Z,23.63
2022-12-08T14:51:16.773Z,22.70
2022-12-08T14:53:46.473Z,25.30
2022-12-08T14:56:23.601Z,21.20
2022-12-08T14:59:03.306Z,22.40
2022-12-08T15:01:30.588Z,19.30
2022-12-08T15:04:09.780Z,21.03
2022-12-08T15:06:36.913Z,26.30
2022-12-08T15:09:28.969Z,25.80
2022-12-08T15:12:27.005Z,17.33
2022-12-08T15:14:56.220Z,21.47
2022-12-08T15:17:58.625Z,25.80
2022-12-08T15:20:28.824Z,24.87
2022-12-08T15:23:00.061Z,32.00
2022-12-08T15:25:26.766Z,29.33
2022-12-08T15:27:53.554Z,19.87
2022-12-08T15:30:20.831Z,21.17
2022-12-08T15:32:47.692Z,20.87
2022-12-08T15:35:15.327Z,25.30
2022-12-08T15:37:42.345Z,29.30
2022-12-08T15:40:18.776Z,21.00
2022-12-08T15:42:45.633Z,28.70
2022-12-08T15:45:14.370Z,30.90
2022-12-08T15:47:42.483Z,23.83
2022-12-08T15:50:21.065Z,28.33
2022-12-08T15:52:48.922Z,23.83
2022-12-08T15:55:18.009Z,28.30
2022-12-08T16:00:54.186Z,24.47
2022-12-08T16:04:27.649Z,22.40
2022-12-08T16:09:12.193Z,28.03
2022-12-08T16:12:07.885Z,27.23
2022-12-08T16:17:22.092Z,23.70
2022-12-08T16:19:48.797Z,29.40
2022-12-08T16:25:22.428Z,18.63
2022-12-08T16:28:08.283Z,24.83
2022-12-08T16:30:39.571Z,25.13
2022-12-08T16:33:06.496Z,23.93
2022-12-08T16:35:33.577Z,24.17
2022-12-08T16:38:00.405Z,26.70
2022-12-08T16:40:27.084Z,24.97
2022-12-08T16:42:53.904Z,23.20
2022-12-08T16:45:29.027Z,24.07
2022-12-08T16:47:58.931Z,22.27
2022-12-08T16:50:28.087Z,20.00
2022-12-08T16:53:00.485Z,26.47
2022-12-08T16:55:27.723Z,17.27
2022-12-08T16:57:54.993Z,17.70
2022-12-08T17:00:24.263Z,17.90
2022-12-08T17:02:51.669Z,18.77
2022-12-08T17:05:20.586Z,19.23
2022-12-08T17:07:48.851Z,22.73
2022-12-08T17:10:23.164Z,24.80
2022-12-08T17:12:50.387Z,13.17
2022-12-08T17:15:19.542Z,15.67
2022-12-08T17:17:46.368Z,22.60
2022-12-08T17:20:15.996Z,21.33
2022-12-08T17:22:43.272Z,21.03
2022-12-08T17:25:10.264Z,21.47
2022-12-08T17:27:37.685Z,27.63
2022-12-08T17:30:09.039Z,26.70
2022-12-08T17:32:38.031Z,19.70
2022-12-08T17:35:05.493Z,24.37
2022-12-08T17:37:32.746Z,26.20
2022-12-08T17:39:59.503Z,26.03
2022-12-08T17:42:27.269Z,28.70
2022-12-08T17:44:54.414Z,22.03
2022-12-08T17:47:21.364Z,25.33
2022-12-08T17:49:48.675Z,21.37
2022-12-08T17:52:15.485Z,16.87
2022-12-08T17:54:42.211Z,19.07
2022-12-08T17:57:08.907Z,18.60
2022-12-08T17:59:35.653Z,15.40
2022-12-08T18:02:02.672Z,23.23
2022-12-08T18:04:29.793Z,18.37
2022-12-08T18:06:59.376Z,22.20
2022-12-08T18:09:26.217Z,23.27
2022-12-08T18:11:53.021Z,19.17
2022-12-08T18:14:20.045Z,19.23
2022-12-08T18:16:47.931Z,20.53
2022-12-08T18:19:15.527Z,18.00
2022-12-08T18:21:42.484Z,22.83
2022-12-08T18:24:17.593Z,28.60
2022-12-08T18:26:44.351Z,21.33
2022-12-08T18:29:11.203Z,22.37
2022-12-08T18:31:38.253Z,25.10
2022-12-08T18:34:04.987Z,20.20
2022-12-08T18:36:31.775Z,24.20
2022-12-08T18:38:58.469Z,31.60
2022-12-08T18:41:26.193Z,24.27
2022-12-08T18:43:53.996Z,23.23
2022-12-08T18:46:21.180Z,20.03
2022-12-08T18:48:50.138Z,22.90
2022-12-08T18:51:19.800Z,24.23
2022-12-08T18:53:47.356Z,19.83
2022-12-08T18:56:29.396Z,28.67
2022-12-08T18:59:02.896Z,18.23
2022-12-08T19:01:31.553Z,24.73
2022-12-08T19:04:26.920Z,25.77
2022-12-08T19:06:46.234Z,30.37
2022-12-08T19:09:14.087Z,32.83
2022-12-08T19:11:41.740Z,31.47
2022-12-08T19:14:08.932Z,27.70
2022-12-08T19:16:36.143Z,32.60
2022-12-08T19:19:03.972Z,25.40
2022-12-08T19:21:32.956Z,25.37
2022-12-08T19:24:00.055Z,23.53
2022-12-08T19:26:28.321Z,34.03
2022-12-08T19:28:55.179Z,42.83
2022-12-08T19:31:22.138Z,27.13
2022-12-08T19:33:48.919Z,26.83
2022-12-08T19:36:18.366Z,21.87
2022-12-08T19:39:03.888Z,22.00
2022-12-08T19:41:49.248Z,21.80
2022-12-08T19:44:34.289Z,21.57
2022-12-08T19:47:01.934Z,19.10
2022-12-08T19:49:28.819Z,18.73
2022-12-08T19:51:56.089Z,30.50
2022-12-08T19:54:23.724Z,18.77
2022-12-08T19:56:50.613Z,21.90
2022-12-08T19:59:18.155Z,20.47
2022-12-08T20:01:47.946Z,22.53
2022-12-08T20:04:15.719Z,23.67
2022-12-08T20:06:42.912Z,16.90
2022-12-08T20:09:10.500Z,22.83
2022-12-08T20:11:38.224Z,23.20
2022-12-08T20:14:05.588Z,22.43
2022-12-08T20:16:32.425Z,21.67
2022-12-08T20:19:00.141Z,21.23
2022-12-08T20:21:26.868Z,17.43
2022-12-08T20:23:53.768Z,24.27
2022-12-08T20:26:22.160Z,23.03
2022-12-08T20:31:26.362Z,18.03
2022-12-08T20:33:53.339Z,20.93
2022-12-08T20:36:21.957Z,19.57
2022-12-08T20:38:51.124Z,20.27
2022-12-08T20:41:18.852Z,18.27
2022-12-08T20:43:47.059Z,16.93
2022-12-08T20:46:16.450Z,22.97
2022-12-08T20:48:44.166Z,19.00
2022-12-08T20:51:19.572Z,22.70
2022-12-08T20:53:47.511Z,25.67
2022-12-08T20:56:18.967Z,24.93
2022-12-08T20:58:46.065Z,23.63
2022-12-08T21:01:15.077Z,20.77
2022-12-08T21:03:42.691Z,22.53
2022-12-08T21:06:10.243Z,22.47
2022-12-08T21:08:37.972Z,20.93
2022-12-08T21:11:05.629Z,25.20
2022-12-08T21:13:32.955Z,25.10
2022-12-08T21:15:59.936Z,27.47
2022-12-08T21:18:27.075Z,26.47
2022-12-08T21:21:02.024Z,26.37
2022-12-08T21:23:28.944Z,28.77
2022-12-08T21:25:55.672Z,26.40
2022-12-08T21:28:22.789Z,26.10
2022-12-08T21:30:49.630Z,29.23
2022-12-08T21:33:17.779Z,28.13
2022-12-08T21:35:44.942Z,24.97
2022-12-08T21:38:11.776Z,25.57
2022-12-08T21:40:39.018Z,26.60
2022-12-08T21:43:05.734Z,28.30
2022-12-08T21:45:34.315Z,25.50
2022-12-08T21:48:05.779Z,22.27
2022-12-08T21:50:37.443Z,31.27
2022-12-08T21:53:04.569Z,31.03
2022-12-08T21:55:31.548Z,28.57
2022-12-08T21:58:00.965Z,36.10
2022-12-08T22:00:28.704Z,28.17
2022-12-08T22:02:55.811Z,39.03
2022-12-08T22:05:22.744Z,28.43
2022-12-08T22:07:49.900Z,36.50
2022-12-08T22:10:17.082Z,29.97
2022-12-08T22:12:43.954Z,29.33
2022-12-08T22:15:11.510Z,34.70
2022-12-08T22:17:40.566Z,28.80
2022-12-08T22:20:10.320Z,36.80
2022-12-08T22:22:37.362Z,22.70
2022-12-08T22:25:05.530Z,24.17
2022-12-08T22:27:35.447Z,27.20
2022-12-08T22:30:02.881Z,30.10
2022-12-08T22:32:30.243Z,28.43
2022-12-08T22:34:57.197Z,28.17
2022-12-08T22:37:24.233Z,29.20
2022-12-08T22:39:51.008Z,24.90
2022-12-08T22:42:17.756Z,24.70
2022-12-08T22:44:44.612Z,31.73
2022-12-08T22:47:11.578Z,25.90
2022-12-08T22:49:38.316Z,27.53
2022-12-08T22:52:05.211Z,29.33
2022-12-08T22:54:32.137Z,28.63
2022-12-08T22:56:58.938Z,26.77
2022-12-08T22:59:25.892Z,27.53
2022-12-08T23:01:54.055Z,32.57
2022-12-08T23:04:21.235Z,24.63
2022-12-08T23:06:48.254Z,24.20
2022-12-08T23:09:15.265Z,22.93
2022-12-08T23:11:42.775Z,26.87
2022-12-08T23:14:09.518Z,25.13
2022-12-08T23:16:36.933Z,23.63
2022-12-08T23:19:03.831Z,24.03
2022-12-08T23:21:30.646Z,25.00
2022-12-08T23:23:57.397Z,28.60
2022-12-08T23:26:27.334Z,27.00
2022-12-08T23:31:27.149Z,32.10
2022-12-08T23:33:54.381Z,25.83
2022-12-08T23:36:22.579Z,27.57
2022-12-08T23:38:49.543Z,27.13
2022-12-08T23:41:16.886Z,31.80
2022-12-08T23:43:50.108Z,23.70
2022-12-08T23:46:19.221Z,35.27
2022-12-08T23:48:46.517Z,26.63
2022-12-08T23:51:14.028Z,25.30
2022-12-08T23:53:41.593Z,27.60
2022-12-08T23:56:11.658Z,28.80
2022-12-08T23:58:39.001Z,37.83
